createdAt,value
2018-04-10T00:01:18.078Z,62.60
2018-04-10T00:03:50.631Z,62.80
2018-04-10T00:06:23.774Z,63.10
2018-04-10T00:08:56.407Z,63.10
2018-04-10T00:11:28.910Z,63.20
2018-04-10T00:14:02.109Z,63.40
2018-04-10T00:16:35.124Z,63.40
2018-04-10T00:19:08.406Z,64.10
2018-04-10T00:21:41.086Z,64.10
2018-04-10T00:24:13.554Z,64.00
2018-04-10T00:26:45.965Z,64.10
2018-04-10T00:29:25.437Z,64.10
2018-04-10T00:31:58.036Z,64.10
2018-04-10T00:34:31.251Z,63.90
2018-04-10T00:37:04.815Z,63.90
2018-04-10T00:39:37.453Z,63.80
2018-04-10T00:42:09.908Z,63.80
2018-04-10T00:44:42.306Z,63.80
2018-04-10T00:47:14.788Z,64.30
2018-04-10T00:49:47.213Z,64.50
2018-04-10T00:52:19.783Z,64.60
2018-04-10T00:54:52.257Z,64.40
2018-04-10T00:57:24.811Z,64.20
2018-04-10T00:59:57.169Z,64.20
2018-04-10T01:02:29.916Z,64.70
2018-04-10T01:05:02.290Z,64.60
2018-04-10T01:07:34.706Z,64.90
2018-04-10T01:10:07.071Z,65.00
2018-04-10T01:12:39.518Z,64.80
2018-04-10T01:15:12.010Z,65.00
2018-04-10T01:17:44.482Z,65.00
2018-04-10T01:20:16.965Z,65.20
2018-04-10T01:22:50.290Z,65.20
2018-04-10T01:25:23.617Z,66.00
2018-04-10T01:27:56.362Z,66.00
2018-04-10T01:30:28.772Z,66.10
2018-04-10T01:33:01.209Z,66.40
2018-04-10T01:35:34.356Z,66.50
2018-04-10T01:38:07.160Z,66.30
2018-04-10T01:40:40.411Z,66.70
2018-04-10T01:43:12.983Z,66.60
2018-04-10T01:45:45.666Z,66.70
2018-04-10T01:48:18.858Z,66.90
2018-04-10T01:50:51.600Z,66.90
2018-04-10T01:53:24.942Z,67.00
2018-04-10T01:55:57.416Z,67.00
2018-04-10T01:58:30.142Z,67.30
2018-04-10T02:01:03.028Z,67.50
2018-04-10T02:03:36.301Z,67.90
2018-04-10T02:06:08.862Z,68.30
2018-04-10T02:08:41.492Z,68.20
2018-04-10T02:29:43.353Z,68.60
2018-04-10T02:32:16.161Z,68.50
2018-04-10T02:34:49.425Z,68.10
2018-04-10T02:37:21.866Z,68.10
2018-04-10T02:39:55.307Z,68.30
2018-04-10T02:42:27.914Z,68.30
2018-04-10T02:45:01.119Z,68.00
2018-04-10T02:47:33.707Z,68.00
2018-04-10T02:50:07.078Z,67.90
2018-04-10T02:52:39.609Z,68.00
2018-04-10T02:55:12.154Z,68.00
2018-04-10T02:57:45.335Z,68.00
2018-04-10T03:00:18.791Z,68.10
2018-04-10T03:02:51.494Z,68.00
2018-04-10T03:05:23.984Z,68.10
2018-04-10T03:07:58.099Z,68.10
2018-04-10T03:10:30.821Z,68.10
2018-04-10T03:13:04.060Z,67.90
2018-04-10T03:15:36.866Z,67.90
2018-04-10T03:18:09.468Z,67.60
2018-04-10T03:20:42.820Z,67.70
2018-04-10T03:23:16.029Z,67.50
2018-04-10T03:25:48.743Z,67.50
2018-04-10T03:28:22.277Z,67.50
2018-04-10T03:30:54.749Z,67.50
2018-04-10T03:33:28.166Z,67.40
2018-04-10T03:36:00.765Z,67.80
2018-04-10T03:38:33.956Z,68.10
2018-04-10T03:41:06.627Z,68.10
2018-04-10T03:43:39.784Z,68.40
2018-04-10T03:46:12.628Z,68.40
2018-04-10T03:48:45.951Z,68.50
2018-04-10T03:51:18.370Z,69.00
2018-04-10T03:53:52.469Z,69.00
2018-04-10T03:56:25.199Z,69.00
2018-04-10T03:58:58.553Z,68.90
2018-04-10T04:01:31.681Z,68.70
2018-04-10T04:04:05.089Z,68.90
2018-04-10T04:06:38.000Z,68.90
2018-04-10T04:09:10.393Z,68.90
2018-04-10T04:11:42.836Z,69.00
2018-04-10T04:14:15.344Z,69.20
2018-04-10T04:17:06.330Z,69.30
2018-04-10T04:19:58.616Z,69.10
2018-04-10T04:22:37.381Z,69.10
2018-04-10T04:25:09.937Z,69.10
2018-04-10T04:27:42.450Z,69.30
2018-04-10T04:30:15.118Z,69.70
2018-04-10T04:32:49.182Z,70.00
2018-04-10T04:35:22.112Z,69.90
2018-04-10T04:37:55.325Z,70.30
2018-04-10T04:40:27.901Z,70.30
2018-04-10T04:43:00.511Z,70.60
2018-04-10T04:45:35.335Z,70.80
2018-04-10T04:48:08.281Z,70.70
2018-04-10T04:50:40.712Z,70.40
2018-04-10T04:53:13.960Z,70.20
2018-04-10T04:55:47.442Z,70.60
2018-04-10T04:58:20.330Z,70.60
2018-04-10T05:00:54.544Z,70.60
2018-04-10T05:03:28.046Z,70.50
2018-04-10T05:06:00.644Z,70.40
2018-04-10T05:08:33.190Z,69.90
2018-04-10T05:11:05.589Z,69.60
2018-04-10T05:13:38.185Z,69.30
2018-04-10T05:16:10.491Z,69.70
2018-04-10T05:18:50.029Z,68.80
2018-04-10T05:21:23.416Z,68.30
2018-04-10T05:23:56.231Z,68.20
2018-04-10T05:26:28.790Z,68.30
2018-04-10T05:29:02.176Z,68.60
2018-04-10T05:31:34.670Z,68.60
2018-04-10T05:34:07.124Z,68.50
2018-04-10T05:36:39.862Z,66.90
2018-04-10T05:39:13.909Z,63.70
2018-04-10T05:41:47.233Z,61.20
2018-04-10T05:44:20.056Z,61.20
2018-04-10T05:46:52.614Z,60.00
2018-04-10T05:49:25.130Z,59.00
2018-04-10T05:51:57.656Z,57.20
2018-04-10T05:54:30.132Z,56.80
2018-04-10T05:57:04.291Z,57.70
2018-04-10T05:59:37.025Z,57.70
2018-04-10T06:02:09.499Z,57.10
2018-04-10T06:04:42.794Z,55.50
2018-04-10T06:07:15.282Z,53.70
2018-04-10T06:09:47.755Z,53.30
2018-04-10T06:12:20.984Z,50.70
2018-04-10T06:14:53.684Z,50.70
2018-04-10T06:17:26.068Z,51.30
2018-04-10T06:19:58.781Z,50.30
2018-04-10T06:22:32.001Z,49.70
2018-04-10T06:25:05.021Z,48.60
2018-04-10T06:27:38.072Z,48.10
2018-04-10T06:30:10.588Z,47.10
2018-04-10T06:32:42.901Z,47.00
2018-04-10T06:35:16.134Z,45.90
2018-04-10T06:37:49.086Z,45.90
2018-04-10T06:40:22.324Z,45.00
2018-04-10T06:42:55.077Z,45.00
2018-04-10T06:45:27.649Z,44.90
2018-04-10T06:48:00.022Z,44.80
2018-04-10T06:50:32.700Z,43.70
2018-04-10T06:53:05.080Z,43.50
2018-04-10T06:55:38.389Z,44.20
2018-04-10T06:58:11.356Z,44.20
2018-04-10T07:00:43.895Z,43.80
2018-04-10T07:03:16.436Z,44.40
2018-04-10T07:05:49.132Z,44.60
2018-04-10T07:08:21.539Z,45.10
2018-04-10T07:10:54.053Z,45.50
2018-04-10T07:13:28.183Z,47.50
2018-04-10T07:16:02.069Z,48.00
2018-04-10T07:18:34.754Z,48.00
2018-04-10T07:21:07.872Z,49.60
2018-04-10T07:23:40.430Z,49.40
2018-04-10T07:26:13.603Z,51.60
2018-04-10T07:28:46.171Z,51.50
2018-04-10T07:31:18.746Z,52.10
2018-04-10T07:33:51.268Z,52.10
2018-04-10T07:36:23.606Z,52.40
2018-04-10T07:38:56.086Z,53.00
2018-04-10T07:41:28.562Z,53.40
2018-04-10T07:44:01.026Z,53.20
2018-04-10T07:46:33.626Z,54.20
2018-04-10T07:49:06.117Z,55.20
2018-04-10T07:51:39.390Z,55.20
2018-04-10T07:54:12.067Z,55.00
2018-04-10T07:56:44.540Z,54.80
2018-04-10T07:59:17.681Z,54.90
2018-04-10T08:01:50.505Z,54.80
2018-04-10T08:04:22.851Z,55.80
2018-04-10T08:06:55.341Z,55.30
2018-04-10T08:09:27.902Z,55.40
2018-04-10T08:12:01.890Z,55.20
2018-04-10T08:14:35.493Z,55.20
2018-04-10T08:17:08.223Z,55.40
2018-04-10T08:19:40.873Z,55.50
2018-04-10T08:22:13.577Z,55.30
2018-04-10T08:24:46.059Z,55.40
2018-04-10T08:27:19.420Z,55.40
2018-04-10T08:29:52.912Z,55.20
2018-04-10T08:32:25.757Z,55.20
2018-04-10T08:34:59.172Z,55.70
2018-04-10T08:37:31.637Z,55.90
2018-04-10T08:40:04.989Z,56.10
2018-04-10T08:42:37.537Z,56.10
2018-04-10T08:45:10.729Z,56.10
2018-04-10T08:47:44.036Z,56.10
2018-04-10T08:50:16.729Z,56.10
2018-04-10T08:52:49.411Z,55.40
2018-04-10T08:55:22.685Z,55.70
2018-04-10T08:57:55.484Z,55.60
2018-04-10T09:00:28.816Z,55.80
2018-04-10T09:03:01.202Z,55.70
2018-04-10T09:05:33.611Z,55.50
2018-04-10T09:08:06.157Z,55.50
2018-04-10T09:10:38.867Z,55.50
2018-04-10T09:13:12.245Z,55.70
2018-04-10T09:15:45.531Z,56.10
2018-04-10T09:18:18.913Z,54.60
2018-04-10T09:20:52.237Z,55.00
2018-04-10T09:23:24.937Z,55.00
2018-04-10T09:25:58.387Z,54.90
2018-04-10T09:28:31.153Z,54.50
2018-04-10T09:31:03.687Z,54.10
2018-04-10T09:33:36.817Z,55.00
2018-04-10T09:36:09.557Z,54.90
2018-04-10T09:38:42.821Z,55.10
2018-04-10T09:41:15.261Z,54.50
2018-04-10T09:43:47.786Z,55.20
2018-04-10T09:46:20.100Z,55.10
2018-04-10T09:48:53.256Z,53.50
2018-04-10T09:51:25.894Z,53.50
2018-04-10T09:53:58.508Z,53.20
2018-04-10T09:56:31.829Z,53.60
2018-04-10T09:59:05.068Z,53.40
2018-04-10T10:01:37.635Z,53.40
2018-04-10T10:04:10.085Z,53.70
2018-04-10T10:06:42.534Z,53.90
2018-04-10T10:09:15.000Z,54.70
2018-04-10T10:11:47.481Z,54.60
2018-04-10T10:14:19.958Z,55.00
2018-04-10T10:16:53.169Z,54.40
2018-04-10T10:19:25.887Z,54.30
2018-04-10T10:21:59.556Z,53.60
2018-04-10T10:24:32.714Z,54.10
2018-04-10T10:27:05.359Z,52.90
2018-04-10T10:29:37.844Z,52.40
2018-04-10T10:32:11.008Z,53.20
2018-04-10T10:34:43.666Z,53.20
2018-04-10T10:37:16.993Z,53.40
2018-04-10T10:39:50.512Z,53.90
2018-04-10T10:42:23.225Z,53.80
2018-04-10T10:44:55.670Z,52.90
2018-04-10T10:47:28.808Z,52.30
2018-04-10T10:50:01.557Z,52.30
2018-04-10T10:52:34.699Z,52.00
2018-04-10T10:55:07.442Z,51.90
2018-04-10T10:57:41.719Z,50.00
2018-04-10T11:00:14.295Z,49.60
2018-04-10T11:02:46.704Z,49.80
2018-04-10T11:05:19.990Z,49.70
2018-04-10T11:07:52.592Z,49.70
2018-04-10T11:10:25.024Z,48.70
2018-04-10T11:12:57.594Z,47.50
2018-04-10T11:15:30.018Z,47.40
2018-04-10T11:18:04.133Z,48.70
2018-04-10T11:20:37.714Z,48.30
2018-04-10T11:23:10.422Z,48.30
2018-04-10T11:25:43.672Z,47.50
2018-04-10T11:28:16.358Z,47.40
2018-04-10T11:30:48.809Z,48.30
2018-04-10T11:33:22.097Z,48.70
2018-04-10T11:35:55.615Z,48.70
2018-04-10T11:38:28.471Z,48.70
2018-04-10T11:41:00.866Z,48.50
2018-04-10T11:43:33.354Z,49.10
2018-04-10T11:46:06.731Z,50.20
2018-04-10T11:48:40.196Z,49.30
2018-04-10T11:51:13.074Z,49.30
2018-04-10T11:53:46.335Z,49.80
2018-04-10T11:56:19.199Z,49.80
2018-04-10T11:58:51.657Z,49.00
2018-04-10T12:01:24.057Z,49.70
2018-04-10T12:03:56.683Z,50.00
2018-04-10T12:06:29.314Z,49.70
2018-04-10T12:09:03.349Z,50.00
2018-04-10T12:11:36.843Z,49.60
2018-04-10T12:14:09.486Z,50.10
2018-04-10T12:16:42.053Z,51.00
2018-04-10T12:19:16.168Z,49.60
2018-04-10T12:21:48.827Z,49.60
2018-04-10T12:24:22.104Z,49.30
2018-04-10T12:26:55.437Z,49.90
2018-04-10T12:29:28.119Z,49.90
2018-04-10T12:32:00.634Z,50.70
2018-04-10T12:34:33.011Z,50.20
2018-04-10T12:37:07.227Z,50.60
2018-04-10T12:39:39.869Z,50.60
2018-04-10T12:42:12.226Z,50.20
2018-04-10T12:44:44.685Z,49.80
2018-04-10T12:47:17.365Z,50.20
2018-04-10T12:49:49.844Z,50.80
2018-04-10T12:52:22.312Z,49.90
2018-04-10T12:54:54.886Z,50.70
2018-04-10T12:57:28.902Z,49.10
2018-04-10T13:00:01.622Z,49.00
2018-04-10T13:02:35.015Z,49.70
2018-04-10T13:05:07.546Z,49.80
2018-04-10T13:07:40.017Z,48.80
2018-04-10T13:10:12.513Z,48.80
2018-04-10T13:12:45.108Z,48.80
2018-04-10T13:15:17.693Z,49.10
2018-04-10T13:17:50.261Z,48.30
2018-04-10T13:20:22.680Z,49.20
2018-04-10T13:22:55.244Z,48.30
2018-04-10T13:25:27.869Z,49.00
2018-04-10T13:28:01.040Z,48.70
2018-04-10T13:30:34.206Z,48.20
2018-04-10T13:33:06.985Z,48.10
2018-04-10T13:35:40.312Z,48.20
2018-04-10T13:38:12.794Z,48.10
2018-04-10T13:40:46.160Z,48.10
2018-04-10T13:43:18.661Z,48.10
2018-04-10T13:45:51.104Z,47.80
2018-04-10T13:48:23.605Z,47.60
2018-04-10T13:50:56.148Z,47.30
2018-04-10T13:53:30.289Z,48.30
2018-04-10T13:56:03.317Z,47.60
2018-04-10T13:58:36.673Z,46.40
2018-04-10T14:01:10.001Z,46.10
2018-04-10T14:03:42.617Z,46.10
2018-04-10T14:06:16.635Z,45.70
2018-04-10T14:08:50.052Z,45.00
2018-04-10T14:11:22.760Z,45.00
2018-04-10T14:13:55.342Z,44.80
2018-04-10T14:16:27.843Z,44.00
2018-04-10T14:19:00.268Z,43.90
2018-04-10T14:21:32.936Z,43.60
2018-04-10T14:24:05.649Z,44.80
2018-04-10T14:26:38.919Z,44.60
2018-04-10T14:29:11.338Z,44.10
2018-04-10T14:31:43.799Z,43.20
2018-04-10T14:34:16.307Z,43.00
2018-04-10T14:36:49.536Z,42.20
2018-04-10T14:39:22.357Z,42.20
2018-04-10T14:41:54.752Z,43.00
2018-04-10T14:44:27.393Z,43.90
2018-04-10T14:46:59.825Z,43.60
2018-04-10T14:49:32.224Z,43.60
2018-04-10T14:52:04.816Z,44.00
2018-04-10T14:54:38.150Z,43.40
2018-04-10T14:57:11.588Z,43.60
2018-04-10T14:59:44.231Z,43.50
2018-04-10T15:02:17.463Z,42.50
2018-04-10T15:04:49.961Z,42.50
2018-04-10T15:07:23.048Z,42.80
2018-04-10T15:09:55.685Z,42.80
2018-04-10T15:12:28.847Z,43.00
2018-04-10T15:15:01.573Z,42.90
2018-04-10T15:17:34.158Z,43.50
2018-04-10T15:20:07.061Z,42.30
2018-04-10T15:22:40.197Z,42.50
2018-04-10T15:25:14.390Z,42.90
2018-04-10T15:27:47.916Z,43.00
2018-04-10T15:30:20.568Z,43.00
2018-04-10T15:32:53.078Z,43.60
2018-04-10T15:35:25.616Z,43.60
2018-04-10T15:37:58.070Z,43.80
2018-04-10T15:40:30.583Z,43.50
2018-04-10T15:43:03.896Z,44.90
2018-04-10T15:45:38.025Z,44.20
2018-04-10T15:48:10.753Z,44.20
2018-04-10T15:50:43.188Z,43.20
2018-04-10T15:53:15.999Z,42.80
2018-04-10T15:55:49.184Z,43.90
2018-04-10T15:58:22.400Z,42.90
2018-04-10T16:00:54.952Z,42.90
2018-04-10T16:03:28.336Z,42.60
2018-04-10T16:06:00.756Z,44.10
2018-04-10T16:08:34.104Z,44.00
2018-04-10T16:11:06.657Z,44.10
2018-04-10T16:13:39.966Z,44.60
2018-04-10T16:16:12.317Z,45.00
2018-04-10T16:18:44.704Z,45.50
2018-04-10T16:21:18.044Z,46.40
2018-04-10T16:23:51.131Z,46.90
2018-04-10T16:26:23.838Z,46.90
2018-04-10T16:28:56.224Z,47.10
2018-04-10T16:31:28.857Z,47.20
2018-04-10T16:34:01.451Z,47.70
2018-04-10T16:36:33.834Z,48.10
2018-04-10T16:39:06.442Z,48.40
2018-04-10T16:41:38.992Z,47.90
2018-04-10T16:44:12.296Z,48.30
2018-04-10T16:46:45.719Z,48.60
2018-04-10T16:49:18.580Z,48.60
2018-04-10T16:51:51.882Z,49.10
2018-04-10T16:54:24.502Z,49.00
2018-04-10T16:56:56.977Z,49.40
2018-04-10T16:59:29.459Z,49.90
2018-04-10T17:02:01.975Z,49.70
2018-04-10T17:04:35.363Z,50.10
2018-04-10T17:07:08.716Z,50.30
2018-04-10T17:09:41.377Z,50.20
2018-04-10T17:12:13.851Z,50.40
2018-04-10T17:14:46.305Z,50.60
2018-04-10T17:17:19.638Z,50.60
2018-04-10T17:19:52.100Z,51.00
2018-04-10T17:22:25.314Z,51.00
2018-04-10T17:24:58.691Z,51.30
2018-04-10T17:27:31.257Z,51.20
2018-04-10T17:30:03.739Z,51.80
2018-04-10T17:32:37.116Z,52.10
2018-04-10T17:35:09.753Z,52.10
2018-04-10T17:37:43.556Z,52.10
2018-04-10T17:40:16.867Z,52.10
2018-04-10T17:42:50.198Z,52.20
2018-04-10T17:45:23.539Z,52.50
2018-04-10T17:47:55.979Z,53.10
2018-04-10T17:50:29.279Z,53.80
2018-04-10T17:53:02.028Z,53.20
2018-04-10T17:55:34.608Z,53.20
2018-04-10T17:58:07.322Z,53.30
2018-04-10T18:00:39.730Z,53.50
2018-04-10T18:03:12.515Z,53.20
2018-04-10T18:05:46.594Z,53.30
2018-04-10T18:08:20.114Z,53.60
2018-04-10T18:10:52.973Z,53.50
2018-04-10T18:13:26.117Z,53.50
2018-04-10T18:15:58.665Z,53.50
2018-04-10T18:18:31.165Z,53.80
2018-04-10T18:21:03.709Z,53.80
2018-04-10T18:23:36.197Z,53.60
2018-04-10T18:26:09.495Z,54.40
2018-04-10T18:28:42.042Z,54.60
2018-04-10T18:31:15.282Z,54.00
2018-04-10T18:33:49.385Z,53.90
2018-04-10T18:36:23.082Z,53.90
2018-04-10T18:38:57.329Z,55.50
2018-04-10T18:41:31.401Z,55.50
2018-04-10T18:44:06.776Z,56.00
2018-04-10T18:46:42.312Z,56.50
2018-04-10T18:49:16.988Z,56.40
2018-04-10T18:51:51.259Z,55.40
2018-04-10T18:54:26.463Z,55.80
2018-04-10T18:57:01.090Z,55.80
2018-04-10T18:59:35.723Z,56.50
2018-04-10T19:02:10.202Z,56.80
2018-04-10T19:04:45.227Z,56.60
2018-04-10T19:07:20.040Z,56.70
2018-04-10T19:09:54.905Z,57.00
2018-04-10T19:12:29.249Z,57.10
2018-04-10T19:15:03.860Z,57.40
2018-04-10T19:17:38.206Z,57.30
2018-04-10T19:20:12.707Z,57.40
2018-04-10T19:22:46.839Z,57.30
2018-04-10T19:25:21.301Z,57.90
2018-04-10T19:27:55.767Z,58.70
2018-04-10T19:30:30.167Z,59.40
2018-04-10T19:33:05.017Z,59.80
2018-04-10T19:35:39.848Z,59.70
2018-04-10T19:38:14.044Z,60.20
2018-04-10T19:40:49.443Z,61.10
2018-04-10T19:43:23.832Z,61.00
2018-04-10T19:45:58.734Z,61.40
2018-04-10T19:48:40.602Z,61.90
2018-04-10T19:51:16.214Z,62.60
2018-04-10T19:53:50.649Z,62.80
2018-04-10T19:56:25.167Z,63.20
2018-04-10T19:59:00.210Z,63.40
2018-04-10T20:01:35.602Z,63.50
2018-04-10T20:04:11.039Z,63.70
2018-04-10T20:06:45.708Z,63.70
2018-04-10T20:09:20.134Z,63.90
2018-04-10T20:11:54.652Z,64.20
2018-04-10T20:14:29.735Z,64.60
2018-04-10T20:17:03.809Z,64.50
2018-04-10T20:19:38.039Z,64.40
2018-04-10T20:22:12.574Z,64.50
2018-04-10T20:24:46.713Z,64.70
2018-04-10T20:27:20.012Z,65.00
2018-04-10T20:29:53.120Z,65.40
2018-04-10T20:32:27.038Z,65.80
2018-04-10T20:34:59.671Z,66.40
2018-04-10T20:37:33.284Z,66.60
2018-04-10T20:40:07.106Z,67.30
2018-04-10T20:42:39.881Z,67.30
2018-04-10T20:45:13.374Z,67.30
2018-04-10T20:47:46.724Z,67.90
2018-04-10T20:50:20.908Z,69.00
2018-04-10T20:52:54.277Z,69.00
2018-04-10T20:55:27.084Z,69.00
2018-04-10T20:58:00.302Z,69.20
2018-04-10T21:00:33.834Z,69.40
2018-04-10T21:03:07.781Z,69.50
2018-04-10T21:05:41.140Z,69.60
2018-04-10T21:08:13.917Z,69.60
2018-04-10T21:10:46.314Z,69.90
2018-04-10T21:13:19.494Z,70.00
2018-04-10T21:15:52.174Z,69.80
2018-04-10T21:18:24.637Z,69.60
2018-04-10T21:20:58.000Z,70.00
2018-04-10T21:23:31.578Z,70.00
2018-04-10T21:26:04.381Z,70.00
2018-04-10T21:28:36.776Z,70.40
2018-04-10T21:31:09.268Z,70.30
2018-04-10T21:33:43.311Z,70.60
2018-04-10T21:36:16.034Z,70.60
2018-04-10T21:38:49.454Z,70.70
2018-04-10T21:41:22.173Z,70.80
2018-04-10T21:43:55.493Z,70.90
2018-04-10T21:46:28.929Z,71.30
2018-04-10T21:49:01.375Z,71.40
2018-04-10T21:51:35.484Z,71.70
2018-04-10T21:54:08.288Z,71.70
2018-04-10T21:56:41.500Z,71.80
2018-04-10T21:59:14.619Z,72.00
2018-04-10T22:01:47.177Z,72.00
2018-04-10T22:13:34.474Z,72.80
2018-04-10T22:16:09.031Z,72.70
2018-04-10T22:18:42.153Z,72.90
2018-04-10T22:21:16.057Z,73.10
2018-04-10T22:23:49.901Z,73.30
2018-04-10T22:26:23.119Z,73.40
2018-04-10T22:28:56.224Z,73.60
2018-04-10T22:31:29.600Z,73.60
2018-04-10T22:34:02.078Z,73.60
2018-04-10T22:36:34.559Z,73.60
2018-04-10T22:39:07.975Z,73.90
2018-04-10T22:41:40.736Z,73.90
2018-04-10T22:44:13.255Z,74.00
2018-04-10T22:46:46.426Z,73.90
2018-04-10T22:49:19.124Z,73.80
2018-04-10T22:51:52.456Z,73.90
2018-04-10T22:54:25.935Z,74.20
2018-04-10T22:56:59.909Z,74.30
2018-04-10T22:59:32.700Z,74.20
2018-04-10T23:02:05.237Z,74.30
2018-04-10T23:04:37.950Z,74.30
2018-04-10T23:07:10.301Z,74.40
2018-04-10T23:09:43.558Z,74.50
2018-04-10T23:12:16.258Z,74.50
2018-04-10T23:14:48.740Z,74.50
2018-04-10T23:17:21.931Z,75.30
2018-04-10T23:19:54.511Z,74.70
2018-04-10T23:22:28.530Z,74.90
2018-04-10T23:25:01.299Z,74.90
2018-04-10T23:27:33.852Z,74.90
2018-04-10T23:30:06.289Z,74.80
2018-04-10T23:32:38.849Z,74.70
2018-04-10T23:35:12.051Z,75.00
2018-04-10T23:37:45.643Z,75.00
2018-04-10T23:40:18.446Z,75.00
2018-04-10T23:42:51.746Z,75.10
2018-04-10T23:45:24.346Z,74.90
2018-04-10T23:47:58.412Z,74.30
2018-04-10T23:50:31.367Z,74.30
2018-04-10T23:53:04.767Z,73.90
2018-04-10T23:55:37.424Z,73.90
2018-04-10T23:58:09.873Z,73.60
